Time;durP1;ratioP1;P1;durP2;ratioP2;P2;SDS_P1;SDS_P2;PMS_P1;PMS_P2;Temp;Humidity;BMP_temperature;BMP_pressure;BME280_temperature;BME280_humidity;BME280_pressure;Samples;Min_cycle;Max_cycle;Signal;HPM_P1;HPM_P2
2021/05/10 00:00:14;;;;;;;4.55;2.30;;;19.10;76.30;;;;;;5034144;28;20092;-77
2021/05/10 00:02:40;;;;;;;4.78;2.50;;;19.10;76.40;;;;;;5034558;28;20032;-76
2021/05/10 00:05:06;;;;;;;4.55;2.58;;;19.10;76.50;;;;;;5034446;28;20025;-78
2021/05/10 00:07:32;;;;;;;3.92;2.72;;;19.00;76.60;;;;;;5034033;28;20485;-78
2021/05/10 00:09:58;;;;;;;4.10;2.72;;;19.00;76.80;;;;;;5034316;28;20109;-77
2021/05/10 00:12:24;;;;;;;5.55;3.40;;;19.00;77.10;;;;;;5033768;28;20059;-78
2021/05/10 00:14:50;;;;;;;6.20;3.80;;;19.00;77.20;;;;;;5034165;28;20030;-78
2021/05/10 00:17:15;;;;;;;6.20;4.05;;;19.00;77.50;;;;;;5033773;28;20099;-77
2021/05/10 00:19:41;;;;;;;6.68;4.30;;;19.00;77.50;;;;;;5032585;28;20550;-77
2021/05/10 00:22:07;;;;;;;7.32;4.43;;;18.90;77.50;;;;;;5034001;28;20060;-78
2021/05/10 00:24:33;;;;;;;6.18;3.60;;;18.90;77.60;;;;;;5032343;28;20022;-77
2021/05/10 00:26:59;;;;;;;5.80;3.55;;;18.90;77.80;;;;;;5033013;28;20021;-78
2021/05/10 00:29:25;;;;;;;5.97;3.95;;;18.90;77.90;;;;;;5032194;28;20386;-76
2021/05/10 00:31:50;;;;;;;6.70;4.15;;;18.90;77.90;;;;;;5034170;28;20033;-77
2021/05/10 00:34:16;;;;;;;8.18;3.88;;;18.80;78.00;;;;;;5033266;28;20018;-76
2021/05/10 00:36:42;;;;;;;11.80;3.70;;;18.80;78.00;;;;;;5033910;28;20021;-77
2021/05/10 00:39:08;;;;;;;8.10;4.15;;;18.80;78.20;;;;;;5033613;28;20046;-76
2021/05/10 00:41:34;;;;;;;5.22;3.65;;;18.80;78.20;;;;;;5032952;28;20041;-77
2021/05/10 00:44:00;;;;;;;6.45;4.10;;;18.80;78.20;;;;;;5033847;28;20045;-78
2021/05/10 00:46:26;;;;;;;6.43;3.90;;;18.80;78.40;;;;;;5033276;28;20365;-78
2021/05/10 00:48:52;;;;;;;6.47;4.00;;;18.70;78.30;;;;;;5032481;28;20036;-77
2021/05/10 00:51:18;;;;;;;6.97;3.65;;;18.80;78.60;;;;;;5033430;28;20034;-77
2021/05/10 00:53:44;;;;;;;8.73;4.60;;;18.80;78.70;;;;;;5032351;28;20024;-78
2021/05/10 00:56:10;;;;;;;6.72;4.47;;;18.70;78.80;;;;;;5033417;28;20033;-77
2021/05/10 00:58:37;;;;;;;6.85;3.83;;;18.70;78.90;;;;;;5032781;28;20532;-77
2021/05/10 01:01:02;;;;;;;6.85;4.20;;;18.70;79.00;;;;;;5032198;28;20454;-77
2021/05/10 01:03:28;;;;;;;7.28;3.97;;;18.70;78.90;;;;;;5032916;28;20018;-77
2021/05/10 01:05:54;;;;;;;5.88;3.60;;;18.60;79.00;;;;;;5033092;28;20367;-76
2021/05/10 01:08:19;;;;;;;7.45;3.70;;;18.70;79.10;;;;;;5032835;28;20029;-78
2021/05/10 01:10:45;;;;;;;6.95;3.80;;;18.70;79.10;;;;;;5032007;28;20036;-77
2021/05/10 01:13:12;;;;;;;5.40;3.60;;;18.60;79.10;;;;;;5032910;28;20056;-77
2021/05/10 01:15:39;;;;;;;5.72;3.60;;;18.60;79.20;;;;;;5032452;28;20026;-77
2021/05/10 01:18:06;;;;;;;5.53;4.07;;;18.60;79.40;;;;;;5033309;28;20025;-78
2021/05/10 01:20:33;;;;;;;6.15;3.67;;;18.60;79.30;;;;;;5032803;28;20048;-77
2021/05/10 01:22:59;;;;;;;6.05;3.88;;;18.60;79.30;;;;;;5032954;28;20481;-77
2021/05/10 01:25:27;;;;;;;6.93;3.85;;;18.60;79.40;;;;;;5032461;28;20025;-77
2021/05/10 01:27:54;;;;;;;6.20;3.80;;;18.60;79.60;;;;;;5032956;28;20109;-77
2021/05/10 01:30:23;;;;;;;6.60;4.38;;;18.60;79.70;;;;;;5032413;28;20037;-76
2021/05/10 01:32:51;;;;;;;6.00;3.60;;;18.60;79.80;;;;;;5032997;28;20389;-77
2021/05/10 01:35:19;;;;;;;7.95;3.75;;;18.50;79.80;;;;;;5032871;28;20056;-78
2021/05/10 01:37:45;;;;;;;7.07;3.80;;;18.50;80.00;;;;;;5031525;28;20022;-77
2021/05/10 01:40:11;;;;;;;5.75;3.63;;;18.50;80.10;;;;;;5031253;28;20049;-77
2021/05/10 01:42:38;;;;;;;6.82;4.05;;;18.50;80.10;;;;;;5031853;28;20021;-78
2021/05/10 01:45:06;;;;;;;8.75;4.00;;;18.50;80.30;;;;;;5032675;28;20487;-77
2021/05/10 01:47:32;;;;;;;4.90;3.50;;;18.50;80.40;;;;;;5030200;28;20022;-78
2021/05/10 01:49:57;;;;;;;8.90;3.70;;;18.50;80.40;;;;;;5032496;28;20132;-76
2021/05/10 01:52:23;;;;;;;9.00;3.75;;;18.40;80.40;;;;;;5031923;28;20080;-77
2021/05/10 01:54:51;;;;;;;4.80;3.03;;;18.40;80.50;;;;;;5032289;28;20104;-76
2021/05/10 01:57:18;;;;;;;6.32;3.95;;;18.40;80.70;;;;;;5032797;28;20033;-77
2021/05/10 01:59:44;;;;;;;6.70;3.78;;;18.40;80.80;;;;;;5031809;28;20029;-76
2021/05/10 02:02:10;;;;;;;6.13;3.50;;;18.40;80.80;;;;;;5032277;28;20054;-78
2021/05/10 02:05:13;;;;;;;6.78;3.67;;;18.40;81.00;;;;;;5030906;28;20068;-76
2021/05/10 02:08:00;;;;;;;4.72;3.05;;;18.40;81.10;;;;;;5030675;28;20373;-77
2021/05/10 02:10:26;;;;;;;6.72;3.22;;;18.30;81.20;;;;;;5030511;28;20028;-76
2021/05/10 02:13:06;;;;;;;6.13;3.20;;;18.30;81.30;;;;;;5031948;28;20021;-77
2021/05/10 02:15:34;;;;;;;4.68;3.05;;;18.30;81.40;;;;;;5031705;28;20018;-77
2021/05/10 02:18:00;;;;;;;4.53;3.17;;;18.20;81.50;;;;;;5031977;28;20531;-77
2021/05/10 02:20:27;;;;;;;6.03;3.20;;;18.20;81.50;;;;;;5031316;28;20048;-78
2021/05/10 02:22:54;;;;;;;5.05;3.60;;;18.20;81.50;;;;;;5032121;28;20021;-78
2021/05/10 02:25:28;;;;;;;4.88;3.20;;;18.20;81.70;;;;;;5032173;28;20017;-78
2021/05/10 02:27:55;;;;;;;5.88;3.22;;;18.20;81.80;;;;;;5032458;28;20021;-77
2021/05/10 02:30:23;;;;;;;6.32;3.30;;;18.20;81.70;;;;;;5030763;28;20037;-76
2021/05/10 02:32:49;;;;;;;6.00;3.63;;;18.20;81.70;;;;;;5031853;28;20378;-77
2021/05/10 02:35:15;;;;;;;4.75;3.20;;;18.20;81.80;;;;;;5031903;28;20022;-77
2021/05/10 02:37:42;;;;;;;5.50;3.25;;;18.20;81.80;;;;;;5031614;28;20462;-77
2021/05/10 02:40:09;;;;;;;6.60;4.10;;;18.20;81.80;;;;;;5031622;28;20124;-77
2021/05/10 02:42:35;;;;;;;8.82;3.90;;;18.20;81.90;;;;;;5031683;28;20078;-77
2021/05/10 02:45:02;;;;;;;6.60;3.10;;;18.10;81.90;;;;;;5032271;28;20030;-77
2021/05/10 02:47:27;;;;;;;5.93;3.28;;;18.20;82.00;;;;;;5031580;28;20022;-78
2021/05/10 02:49:54;;;;;;;5.22;3.28;;;18.10;82.00;;;;;;5031998;28;20026;-77
2021/05/10 02:52:20;;;;;;;5.68;3.13;;;18.10;82.10;;;;;;5032199;28;20125;-76
2021/05/10 02:54:45;;;;;;;6.20;2.97;;;18.10;82.10;;;;;;5031117;28;20466;-77
2021/05/10 02:57:11;;;;;;;4.15;2.90;;;18.10;82.10;;;;;;5032026;28;20025;-78
2021/05/10 02:59:37;;;;;;;4.38;2.65;;;18.10;82.20;;;;;;5031058;28;20033;-77
2021/05/10 03:02:03;;;;;;;5.25;3.25;;;18.10;82.20;;;;;;5035775;28;20033;-78
2021/05/10 03:04:29;;;;;;;7.00;3.13;;;18.10;82.30;;;;;;5033872;28;20029;-77
2021/05/10 03:06:55;;;;;;;4.35;2.58;;;18.00;82.30;;;;;;5035722;28;20025;-78
2021/05/10 03:09:20;;;;;;;5.40;2.88;;;18.00;82.30;;;;;;5035465;28;20064;-77
2021/05/10 03:11:46;;;;;;;5.70;2.88;;;18.00;82.40;;;;;;5043117;28;20056;-76
2021/05/10 03:14:12;;;;;;;4.80;2.40;;;18.00;82.50;;;;;;5055133;28;20025;-77
2021/05/10 03:16:37;;;;;;;4.85;2.97;;;18.00;82.70;;;;;;5054436;28;20027;-77
2021/05/10 03:19:08;;;;;;;5.20;2.80;;;18.00;82.90;;;;;;5055449;28;20033;-77
2021/05/10 03:21:38;;;;;;;4.63;3.05;;;18.00;82.90;;;;;;5054385;28;20033;-77
2021/05/10 03:24:05;;;;;;;3.47;2.60;;;17.90;83.10;;;;;;5055232;28;20021;-77
2021/05/10 03:26:31;;;;;;;4.57;2.50;;;17.90;83.30;;;;;;5054740;28;20104;-77
2021/05/10 03:28:57;;;;;;;4.22;2.22;;;17.80;83.50;;;;;;5055240;28;20155;-77
2021/05/10 03:31:22;;;;;;;3.75;2.25;;;17.80;83.80;;;;;;5055155;28;20025;-77
2021/05/10 03:33:48;;;;;;;5.10;2.30;;;17.80;83.90;;;;;;5054294;28;20029;-78
2021/05/10 03:36:14;;;;;;;3.17;2.08;;;17.70;83.90;;;;;;5055104;28;20024;-77
2021/05/10 03:38:39;;;;;;;2.95;2.03;;;17.70;83.80;;;;;;5054223;28;20036;-76
2021/05/10 03:41:05;;;;;;;2.42;1.80;;;17.70;83.80;;;;;;5055039;28;20057;-77
2021/05/10 03:43:31;;;;;;;2.22;1.50;;;17.70;84.00;;;;;;5054148;28;20377;-78
2021/05/10 03:45:56;;;;;;;8.05;1.67;;;17.70;83.80;;;;;;5054976;28;20040;-77
2021/05/10 03:48:22;;;;;;;2.53;1.50;;;17.70;83.70;;;;;;5054952;28;20031;-77
2021/05/10 03:50:47;;;;;;;2.22;1.58;;;17.70;83.70;;;;;;5036404;28;20462;-76
2021/05/10 03:53:13;;;;;;;3.55;1.80;;;17.70;83.60;;;;;;5034634;28;20464;-76
2021/05/10 03:55:39;;;;;;;2.67;1.70;;;17.70;83.70;;;;;;5034706;28;20032;-76
2021/05/10 03:58:05;;;;;;;3.42;1.60;;;17.70;83.60;;;;;;5033546;28;20022;-78
2021/05/10 04:00:31;;;;;;;2.13;1.33;;;17.70;83.20;;;;;;5034660;28;20037;-77
2021/05/10 04:02:59;;;;;;;2.95;1.70;;;17.70;82.80;;;;;;5035093;28;20488;-76
2021/05/10 04:15:48;;;;;;;2.17;1.20;;;17.90;78.00;;;;;;5033545;28;20033;-77
2021/05/10 04:18:14;;;;;;;3.47;1.77;;;18.00;76.90;;;;;;5034453;28;20053;-75
2021/05/10 04:20:40;;;;;;;1.48;1.05;;;18.10;75.60;;;;;;5031969;28;20029;-79
2021/05/10 04:23:06;;;;;;;3.15;1.15;;;18.10;74.70;;;;;;5035990;28;20036;-76
2021/05/10 04:25:32;;;;;;;2.03;1.20;;;18.20;74.00;;;;;;5042632;28;20415;-77
2021/05/10 04:27:57;;;;;;;1.70;1.02;;;18.20;73.20;;;;;;5038606;28;20485;-77
2021/05/10 04:30:23;;;;;;;3.90;1.08;;;18.30;72.70;;;;;;5043098;28;20024;-78
2021/05/10 04:32:49;;;;;;;2.15;1.20;;;18.40;71.90;;;;;;5044023;28;20021;-77
2021/05/10 04:35:15;;;;;;;1.55;1.10;;;18.40;71.80;;;;;;5044928;28;20029;-77
2021/05/10 04:37:40;;;;;;;2.85;1.23;;;18.50;71.00;;;;;;5053013;28;20461;-77
2021/05/10 04:40:07;;;;;;;1.60;1.02;;;18.50;71.20;;;;;;5053454;28;20480;-75
2021/05/10 04:42:33;;;;;;;2.97;1.20;;;18.60;70.50;;;;;;5053378;28;20021;-75
2021/05/10 04:44:59;;;;;;;1.40;1.10;;;18.60;70.00;;;;;;5053546;28;20032;-77
2021/05/10 04:47:35;;;;;;;4.47;1.10;;;18.70;69.60;;;;;;5053592;28;20362;-78
2021/05/10 04:50:05;;;;;;;2.78;1.10;;;18.70;69.40;;;;;;5052355;28;20036;-78
2021/05/10 04:52:31;;;;;;;3.97;1.63;;;18.70;68.60;;;;;;5054053;28;20465;-76
2021/05/10 04:54:56;;;;;;;2.30;1.45;;;18.80;67.80;;;;;;5052688;28;20109;-77
2021/05/10 04:57:22;;;;;;;2.80;1.40;;;18.90;67.50;;;;;;5053897;28;20453;-77
2021/05/10 04:59:48;;;;;;;6.43;1.33;;;18.90;66.70;;;;;;5052779;28;20060;-77
2021/05/10 05:02:14;;;;;;;3.70;1.20;;;18.90;66.90;;;;;;5053700;28;20029;-77
2021/05/10 05:04:39;;;;;;;2.20;0.98;;;19.00;66.80;;;;;;5052905;28;20051;-76
2021/05/10 05:07:05;;;;;;;1.98;1.50;;;19.00;67.30;;;;;;5053257;28;20416;-78
2021/05/10 05:09:31;;;;;;;3.28;1.10;;;19.00;67.40;;;;;;5053618;28;20480;-77
2021/05/10 05:11:56;;;;;;;3.78;1.50;;;19.00;67.60;;;;;;5051498;28;20132;-77
2021/05/10 05:14:22;;;;;;;3.65;1.05;;;19.00;67.30;;;;;;5053028;28;20028;-79
2021/05/10 05:16:47;;;;;;;1.40;0.90;;;19.00;67.20;;;;;;5051403;28;20025;-77
2021/05/10 05:19:13;;;;;;;1.67;1.10;;;19.00;67.00;;;;;;5052784;28;20127;-78
2021/05/10 05:21:38;;;;;;;4.60;1.55;;;19.00;66.70;;;;;;5052444;28;20035;-77
2021/05/10 05:24:05;;;;;;;2.28;1.20;;;19.10;66.50;;;;;;5052052;28;20031;-77
2021/05/10 05:26:30;;;;;;;5.85;1.48;;;19.10;66.10;;;;;;5053073;28;20028;-77
2021/05/10 05:28:56;;;;;;;3.03;1.52;;;19.10;66.50;;;;;;5049422;28;20025;-80
2021/05/10 05:31:23;;;;;;;3.67;1.40;;;19.20;66.50;;;;;;5049232;28;20028;-79
2021/05/10 05:33:48;;;;;;;5.00;1.77;;;19.20;66.80;;;;;;5050079;28;20462;-76
2021/05/10 05:36:14;;;;;;;6.20;1.45;;;19.20;67.20;;;;;;5050593;28;20032;-76
2021/05/10 05:38:41;;;;;;;3.40;1.25;;;19.20;67.50;;;;;;5049719;28;20093;-78
2021/05/10 05:41:10;;;;;;;13.32;5.75;;;19.20;67.70;;;;;;5049734;28;20057;-77
2021/05/10 05:43:36;;;;;;;7.03;3.22;;;19.20;68.00;;;;;;5048710;28;20040;-76
2021/05/10 05:46:03;;;;;;;4.53;1.08;;;19.10;68.20;;;;;;5050980;28;20021;-76
2021/05/10 05:48:29;;;;;;;1.80;1.00;;;19.10;68.20;;;;;;5040187;28;20099;-76
2021/05/10 05:50:54;;;;;;;3.78;1.10;;;19.10;68.60;;;;;;5031931;28;20111;-77
2021/05/10 05:53:20;;;;;;;2.65;1.00;;;19.10;68.70;;;;;;5028939;28;20029;-75
2021/05/10 05:55:46;;;;;;;3.65;1.00;;;19.10;68.90;;;;;;5049317;28;20389;-77
2021/05/10 05:58:12;;;;;;;1.23;0.80;;;19.10;69.10;;;;;;5050087;28;20362;-77
2021/05/10 06:00:38;;;;;;;2.70;0.73;;;19.00;69.70;;;;;;5031496;28;20029;-77
2021/05/10 06:03:04;;;;;;;1.30;0.90;;;18.90;71.10;;;;;;5042049;28;20381;-77
2021/05/10 06:05:30;;;;;;;1.10;0.80;;;18.70;72.30;;;;;;5030549;28;20533;-77
2021/05/10 06:07:56;;;;;;;2.35;1.10;;;18.60;71.90;;;;;;5029570;28;20034;-77
2021/05/10 06:10:26;;;;;;;0.77;0.60;;;18.60;71.40;;;;;;5032214;28;20076;-77
2021/05/10 06:12:53;;;;;;;1.38;0.90;;;18.60;71.50;;;;;;5048756;28;20075;-77
2021/05/10 06:15:21;;;;;;;0.80;0.80;;;18.60;71.30;;;;;;5045323;28;20018;-77
2021/05/10 06:17:48;;;;;;;5.25;1.00;;;18.60;71.00;;;;;;5031338;28;20017;-76
2021/05/10 06:20:15;;;;;;;1.67;1.00;;;18.70;71.10;;;;;;5042038;28;20025;-78
2021/05/10 06:22:41;;;;;;;5.50;1.20;;;18.70;71.10;;;;;;5051863;28;20020;-77
2021/05/10 06:25:09;;;;;;;3.00;0.88;;;18.70;71.30;;;;;;5034650;28;20041;-77
2021/05/10 06:27:35;;;;;;;3.22;1.25;;;18.70;71.30;;;;;;5031163;28;20469;-77
2021/05/10 06:30:02;;;;;;;2.85;0.93;;;18.70;71.30;;;;;;5029995;28;20045;-76
2021/05/10 06:32:27;;;;;;;1.58;0.80;;;18.80;71.00;;;;;;5030491;28;20025;-76
2021/05/10 06:34:53;;;;;;;1.30;0.70;;;18.80;70.40;;;;;;5030770;28;20029;-76
2021/05/10 06:37:20;;;;;;;1.88;0.63;;;18.90;70.20;;;;;;5037061;28;20106;-76
2021/05/10 06:39:49;;;;;;;1.60;0.50;;;18.80;70.10;;;;;;5049636;28;20462;-75
2021/05/10 06:42:15;;;;;;;1.75;0.57;;;18.80;70.00;;;;;;5041237;28;20056;-77
2021/05/10 06:44:42;;;;;;;0.90;0.50;;;18.80;70.00;;;;;;5029792;28;20060;-76
2021/05/10 06:47:08;;;;;;;1.08;0.60;;;18.80;70.20;;;;;;5029881;28;20021;-76
2021/05/10 06:49:34;;;;;;;1.65;0.57;;;18.70;69.70;;;;;;5030203;28;20363;-75
2021/05/10 06:52:00;;;;;;;3.97;0.57;;;18.70;69.00;;;;;;5030488;28;20060;-76
2021/05/10 06:54:26;;;;;;;0.90;0.57;;;18.70;68.30;;;;;;5036336;28;20434;-78
2021/05/10 06:56:52;;;;;;;0.95;0.60;;;18.70;68.40;;;;;;5049580;28;20021;-77
2021/05/10 06:59:19;;;;;;;2.38;0.52;;;18.60;68.50;;;;;;5042310;28;20034;-76
2021/05/10 07:01:44;;;;;;;0.63;0.30;;;18.70;68.50;;;;;;5030303;28;20517;-76
2021/05/10 07:04:10;;;;;;;1.75;0.40;;;18.70;68.60;;;;;;5031374;28;20088;-77
2021/05/10 07:06:36;;;;;;;1.70;0.70;;;18.80;68.90;;;;;;5040467;28;20021;-77
2021/05/10 07:09:02;;;;;;;2.58;0.57;;;18.90;69.00;;;;;;5030206;28;20190;-77
2021/05/10 07:11:28;;;;;;;0.70;0.47;;;19.00;69.00;;;;;;5030807;28;20030;-76
2021/05/10 07:13:54;;;;;;;1.10;0.43;;;19.00;69.10;;;;;;5030241;28;20026;-77
2021/05/10 07:16:19;;;;;;;1.85;0.77;;;19.00;69.20;;;;;;5029395;28;20025;-77
2021/05/10 07:18:45;;;;;;;0.93;0.55;;;19.00;69.00;;;;;;5029780;28;20041;-77
2021/05/10 07:21:11;;;;;;;1.73;0.60;;;19.00;68.80;;;;;;5030503;28;20044;-77
2021/05/10 07:23:36;;;;;;;2.85;0.80;;;18.90;68.50;;;;;;5030082;28;20148;-77
2021/05/10 07:26:02;;;;;;;0.98;0.77;;;18.80;68.60;;;;;;5045964;28;20017;-77
2021/05/10 07:28:28;;;;;;;2.10;0.93;;;18.80;68.50;;;;;;5039430;28;20457;-77
2021/05/10 07:30:54;;;;;;;2.63;0.85;;;18.90;68.40;;;;;;5050846;28;20032;-77
2021/05/10 07:33:19;;;;;;;2.78;0.93;;;18.90;67.50;;;;;;5035045;28;20036;-77
2021/05/10 07:35:45;;;;;;;2.63;0.85;;;18.90;67.20;;;;;;5030616;28;20029;-76
2021/05/10 07:38:11;;;;;;;0.70;0.70;;;18.90;67.20;;;;;;5030006;28;20362;-77
2021/05/10 07:40:38;;;;;;;1.55;0.93;;;18.90;67.20;;;;;;5031319;28;20072;-77
2021/05/10 07:43:04;;;;;;;2.60;0.50;;;18.90;67.40;;;;;;5032928;28;20557;-78
2021/05/10 07:45:30;;;;;;;1.10;0.60;;;19.00;67.20;;;;;;5030504;28;20104;-78
2021/05/10 07:47:57;;;;;;;3.05;0.88;;;19.10;66.80;;;;;;5032779;28;20489;-77
2021/05/10 07:50:24;;;;;;;5.68;1.15;;;19.20;67.00;;;;;;5034987;28;20116;-77
2021/05/10 07:52:50;;;;;;;4.68;1.50;;;19.20;67.40;;;;;;5033199;28;20032;-76
2021/05/10 07:55:17;;;;;;;1.38;1.00;;;19.20;67.70;;;;;;5034118;28;20062;-77
2021/05/10 07:57:44;;;;;;;1.33;1.17;;;19.10;67.80;;;;;;5049560;28;20029;-77
2021/05/10 08:00:15;;;;;;;2.50;0.95;;;19.10;68.10;;;;;;5032356;28;20490;-78
2021/05/10 08:02:43;;;;;;;1.50;0.88;;;19.00;68.10;;;;;;5034318;28;20076;-77
2021/05/10 08:05:09;;;;;;;2.00;1.10;;;19.00;68.50;;;;;;5051528;28;20090;-76
2021/05/10 08:07:35;;;;;;;2.55;1.25;;;18.90;68.80;;;;;;5050701;28;20018;-77
2021/05/10 08:10:01;;;;;;;1.88;1.10;;;18.90;68.80;;;;;;5037858;28;20396;-77
2021/05/10 08:12:26;;;;;;;1.67;1.05;;;19.00;69.40;;;;;;5053984;28;20386;-77
2021/05/10 08:14:52;;;;;;;1.77;0.88;;;19.00;69.10;;;;;;5042580;28;20482;-75
2021/05/10 08:17:19;;;;;;;2.03;0.85;;;19.00;69.10;;;;;;5034531;28;20032;-77
2021/05/10 08:19:45;;;;;;;2.00;1.25;;;18.90;68.90;;;;;;5052861;28;20036;-77
2021/05/10 08:22:11;;;;;;;1.30;0.90;;;18.90;69.20;;;;;;5052689;28;20036;-77
2021/05/10 08:24:37;;;;;;;2.25;1.20;;;18.90;69.30;;;;;;5054245;28;20045;-77
2021/05/10 08:27:02;;;;;;;1.88;1.10;;;18.80;69.50;;;;;;5053375;28;20479;-77
2021/05/10 08:29:28;;;;;;;4.13;1.08;;;18.80;69.60;;;;;;5054155;28;20021;-78
2021/05/10 08:31:55;;;;;;;1.38;0.90;;;18.80;69.80;;;;;;5044383;28;20458;-76
2021/05/10 08:34:21;;;;;;;1.88;1.08;;;18.90;70.00;;;;;;5048279;28;20381;-77
2021/05/10 08:36:47;;;;;;;2.97;0.95;;;19.00;69.90;;;;;;5033185;28;20029;-78
2021/05/10 08:39:12;;;;;;;5.10;1.38;;;19.00;69.80;;;;;;5033158;28;20079;-77
2021/05/10 08:41:39;;;;;;;2.88;0.98;;;18.90;70.00;;;;;;5044686;28;20115;-77
2021/05/10 08:44:06;;;;;;;1.30;0.90;;;18.90;69.80;;;;;;5033478;28;20029;-77
2021/05/10 08:46:33;;;;;;;1.15;0.80;;;18.80;71.30;;;;;;5033690;28;20048;-77
2021/05/10 08:48:59;;;;;;;1.35;0.90;;;18.70;71.80;;;;;;5048079;28;20029;-76
2021/05/10 08:51:26;;;;;;;1.85;1.00;;;18.50;72.50;;;;;;5053662;28;20021;-76
2021/05/10 08:53:52;;;;;;;1.55;0.90;;;18.50;73.00;;;;;;5032975;28;20026;-77
2021/05/10 08:56:18;;;;;;;2.95;0.90;;;18.60;73.10;;;;;;5032102;28;20143;-76
2021/05/10 08:58:45;;;;;;;3.65;0.77;;;18.60;72.90;;;;;;5033409;28;20474;-77
2021/05/10 09:01:12;;;;;;;1.60;0.82;;;18.70;72.90;;;;;;5044934;28;20438;-77
2021/05/10 09:03:46;;;;;;;1.55;0.90;;;18.70;72.60;;;;;;5052002;28;20074;-77
2021/05/10 09:06:14;;;;;;;2.90;1.00;;;18.80;72.10;;;;;;5031607;28;20028;-77
2021/05/10 09:08:44;;;;;;;3.05;0.82;;;18.70;72.00;;;;;;5033165;28;20026;-78
2021/05/10 09:11:11;;;;;;;1.75;1.02;;;18.70;72.10;;;;;;5041090;28;20107;-77
2021/05/10 09:13:42;;;;;;;2.13;1.00;;;18.70;71.50;;;;;;5051881;28;20024;-78
2021/05/10 09:16:09;;;;;;;1.13;1.02;;;18.70;71.70;;;;;;5051697;28;20053;-77
2021/05/10 09:18:36;;;;;;;1.77;1.05;;;18.80;71.40;;;;;;5046061;28;20077;-77
2021/05/10 09:21:10;;;;;;;1.17;1.05;;;18.90;70.40;;;;;;5032540;28;20405;-76
2021/05/10 09:23:36;;;;;;;3.72;1.40;;;18.90;70.10;;;;;;5042650;28;20025;-77
2021/05/10 09:26:02;;;;;;;3.05;1.50;;;18.90;69.60;;;;;;5051227;28;20086;-77
2021/05/10 09:28:36;;;;;;;4.82;1.20;;;18.80;69.50;;;;;;5037833;28;20037;-77
2021/05/10 09:31:07;;;;;;;2.47;1.10;;;18.80;69.30;;;;;;5030957;28;20129;-76
2021/05/10 09:33:34;;;;;;;1.98;1.13;;;18.80;68.90;;;;;;5032069;28;20025;-76
2021/05/10 09:36:06;;;;;;;1.77;1.02;;;18.80;68.90;;;;;;5032465;28;20025;-76
2021/05/10 09:38:33;;;;;;;2.25;1.00;;;18.80;68.90;;;;;;5033018;28;20061;-77
2021/05/10 09:41:08;;;;;;;2.10;1.38;;;18.80;68.80;;;;;;5044821;28;20470;-78
2021/05/10 09:43:39;;;;;;;1.88;1.20;;;18.80;68.60;;;;;;5036895;28;20021;-77
2021/05/10 09:46:12;;;;;;;2.25;1.23;;;18.80;68.90;;;;;;5052088;28;20024;-76
2021/05/10 09:48:42;;;;;;;1.88;1.10;;;18.90;68.40;;;;;;5041997;28;20036;-78
2021/05/10 09:51:11;;;;;;;2.77;1.10;;;18.90;68.30;;;;;;5032341;28;20021;-77
2021/05/10 09:53:36;;;;;;;3.13;1.17;;;19.00;68.00;;;;;;5032647;28;20059;-78
2021/05/10 09:56:04;;;;;;;2.80;1.20;;;19.00;67.90;;;;;;5030326;28;20461;-76
2021/05/10 09:58:45;;;;;;;2.42;0.90;;;19.00;68.50;;;;;;5031845;28;20040;-77
2021/05/10 10:01:11;;;;;;;1.55;1.17;;;19.10;68.90;;;;;;5037503;28;20025;-78
2021/05/10 10:03:45;;;;;;;2.22;1.40;;;19.10;69.20;;;;;;5052266;28;20025;-77
2021/05/10 10:06:18;;;;;;;1.50;1.00;;;19.10;69.30;;;;;;5038541;28;20030;-77
2021/05/10 10:08:49;;;;;;;2.03;1.25;;;19.10;69.20;;;;;;5030575;28;20036;-78
2021/05/10 10:11:20;;;;;;;1.45;1.00;;;19.10;69.30;;;;;;5031638;28;20021;-77
2021/05/10 10:13:47;;;;;;;2.85;1.05;;;19.10;69.30;;;;;;5032142;28;20105;-78
2021/05/10 10:16:14;;;;;;;2.03;1.17;;;19.10;70.00;;;;;;5031487;28;20087;-77
2021/05/10 10:18:42;;;;;;;2.60;1.27;;;19.10;69.70;;;;;;5031055;28;20059;-77
2021/05/10 10:21:09;;;;;;;1.95;1.17;;;19.20;69.80;;;;;;5030538;28;20045;-78
2021/05/10 10:23:36;;;;;;;3.38;2.00;;;19.20;69.90;;;;;;5030964;28;20026;-76
2021/05/10 10:26:06;;;;;;;3.13;1.50;;;19.10;70.10;;;;;;5030607;28;20021;-76
2021/05/10 10:28:33;;;;;;;7.63;1.70;;;19.10;70.20;;;;;;5031672;28;20111;-78
2021/05/10 10:31:17;;;;;;;1.85;1.25;;;19.10;70.50;;;;;;5040509;28;20091;-77
2021/05/10 10:33:54;;;;;;;2.72;1.48;;;19.00;70.60;;;;;;5051731;28;20037;-78
2021/05/10 10:36:27;;;;;;;2.03;1.35;;;19.00;71.50;;;;;;5030589;28;20380;-77
2021/05/10 10:39:13;;;;;;;4.30;1.58;;;19.10;71.00;;;;;;5031236;28;20033;-76
2021/05/10 10:42:12;;;;;;;2.95;1.90;;;19.10;70.80;;;;;;5029895;28;20444;-77
2021/05/10 10:44:42;;;;;;;4.10;2.20;;;19.00;70.80;;;;;;5036432;28;20021;-76
2021/05/10 10:47:10;;;;;;;3.13;2.28;;;18.80;71.30;;;;;;5050933;28;20053;-76
2021/05/10 10:49:38;;;;;;;3.90;1.80;;;18.70;72.00;;;;;;5044679;28;20021;-77
2021/05/10 10:52:16;;;;;;;3.85;1.90;;;18.60;72.30;;;;;;5031035;28;20026;-76
2021/05/10 10:54:42;;;;;;;5.15;2.28;;;18.50;73.50;;;;;;5050503;28;20441;-77
2021/05/10 10:57:07;;;;;;;3.92;2.33;;;18.40;73.40;;;;;;5030819;28;20481;-76
2021/05/10 10:59:41;;;;;;;3.80;2.28;;;18.30;73.80;;;;;;5031710;28;20382;-76
2021/05/10 11:02:17;;;;;;;4.15;2.35;;;18.20;74.30;;;;;;5038773;28;20020;-77
2021/05/10 11:04:43;;;;;;;4.78;2.33;;;18.20;74.80;;;;;;5051464;28;20029;-77
2021/05/10 11:07:10;;;;;;;4.85;2.65;;;18.20;75.90;;;;;;5037414;28;20030;-76
2021/05/10 11:09:49;;;;;;;6.43;2.40;;;18.30;75.60;;;;;;5029947;28;20040;-78
2021/05/10 11:12:52;;;;;;;4.82;2.80;;;18.20;76.20;;;;;;5030922;28;20018;-77
2021/05/10 11:15:38;;;;;;;5.32;3.10;;;18.00;77.20;;;;;;5028857;28;20022;-77
2021/05/10 11:18:05;;;;;;;6.47;2.88;;;17.90;78.20;;;;;;5031309;28;20032;-76
2021/05/10 11:20:38;;;;;;;5.32;3.47;;;17.80;78.70;;;;;;5030561;28;20030;-76
2021/05/10 11:23:24;;;;;;;5.50;3.00;;;17.80;79.10;;;;;;5039038;28;20029;-75
2021/05/10 11:26:19;;;;;;;5.18;2.70;;;17.70;79.50;;;;;;5051314;28;20039;-77
2021/05/10 11:28:45;;;;;;;4.35;2.88;;;17.60;80.00;;;;;;5039455;28;20509;-76
2021/05/10 11:31:13;;;;;;;5.63;2.95;;;17.30;80.60;;;;;;5051551;28;20118;-76
2021/05/10 11:33:51;;;;;;;6.45;3.83;;;17.20;81.50;;;;;;5049665;28;20411;-76
2021/05/10 11:36:24;;;;;;;5.65;3.38;;;17.10;82.30;;;;;;5034801;28;20014;-76
2021/05/10 11:38:57;;;;;;;7.95;3.67;;;17.00;82.80;;;;;;5053573;28;20082;-77
2021/05/10 11:41:34;;;;;;;5.65;4.10;;;16.90;84.10;;;;;;5039078;28;20045;-76
2021/05/10 11:44:02;;;;;;;7.40;4.32;;;16.90;84.10;;;;;;5033709;28;20034;-75
2021/05/10 11:46:40;;;;;;;6.20;3.90;;;16.80;84.50;;;;;;5054214;28;20024;-78
2021/05/10 11:49:21;;;;;;;6.80;3.83;;;16.80;84.50;;;;;;5048525;28;20060;-76
2021/05/10 11:51:47;;;;;;;;;;;16.80;84.70;;;;;;5034563;28;20079;-77
2021/05/10 11:54:13;;;;;;;4.93;2.90;;;16.70;84.60;;;;;;5035654;28;19909;-76
2021/05/10 11:56:44;;;;;;;4.70;2.67;;;16.70;84.80;;;;;;5053193;28;20025;-76
2021/05/10 12:02:18;;;;;;;3.28;2.22;;;16.80;84.50;;;;;;5033952;28;20068;-75
2021/05/10 12:04:52;;;;;;;4.07;2.55;;;16.80;84.20;;;;;;5033796;28;20044;-77
2021/05/10 12:07:19;;;;;;;5.03;2.88;;;17.00;84.80;;;;;;5033896;28;20500;-76
2021/05/10 12:10:02;;;;;;;4.65;2.50;;;17.00;84.90;;;;;;5045075;28;20029;-79
2021/05/10 12:12:32;;;;;;;5.35;2.72;;;17.10;84.90;;;;;;5053725;28;20056;-76
2021/05/10 12:15:14;;;;;;;3.30;2.13;;;17.20;84.80;;;;;;5036048;28;20030;-76
2021/05/10 12:17:44;;;;;;;6.20;2.63;;;17.40;84.50;;;;;;5032380;28;20033;-77
2021/05/10 12:20:13;;;;;;;5.45;2.50;;;17.50;84.00;;;;;;5032354;28;20072;-75
2021/05/10 12:22:41;;;;;;;5.05;2.40;;;17.60;83.90;;;;;;5049845;28;20048;-76
2021/05/10 12:25:25;;;;;;;4.25;2.40;;;17.70;83.50;;;;;;5052104;28;20104;-77
2021/05/10 12:28:14;;;;;;;4.13;2.03;;;17.80;82.80;;;;;;5032815;28;20029;-77
2021/05/10 12:30:49;;;;;;;3.95;2.42;;;18.00;82.50;;;;;;5034185;28;20033;-77
2021/05/10 12:33:23;;;;;;;4.28;2.50;;;18.20;82.00;;;;;;5033162;28;20024;-76
2021/05/10 12:35:54;;;;;;;5.40;3.00;;;18.20;81.40;;;;;;5032859;28;20123;-78
2021/05/10 12:38:42;;;;;;;;;;;18.20;81.30;;;;;;5033811;28;20017;-77
2021/05/10 12:41:18;;;;;;;6.80;2.70;;;18.30;81.00;;;;;;5034130;28;19967;-77
2021/05/10 12:43:49;;;;;;;3.75;2.55;;;18.60;80.60;;;;;;5033948;28;20065;-77
2021/05/10 12:46:14;;;;;;;5.13;2.65;;;18.60;81.20;;;;;;5033339;28;20021;-76
2021/05/10 12:48:43;;;;;;;4.75;2.65;;;18.80;80.30;;;;;;5033196;28;20040;-78
2021/05/10 12:51:11;;;;;;;4.22;2.90;;;19.00;80.00;;;;;;5033668;28;20036;-77
2021/05/10 12:53:55;;;;;;;4.40;2.47;;;19.10;79.10;;;;;;5049395;28;20141;-76
2021/05/10 12:56:23;;;;;;;4.97;2.70;;;19.10;79.10;;;;;;5048262;28;20030;-77
2021/05/10 12:58:52;;;;;;;4.68;2.63;;;19.20;78.90;;;;;;5033610;28;20037;-77
2021/05/10 13:01:26;;;;;;;4.57;2.90;;;19.30;78.40;;;;;;5033017;28;20036;-75
2021/05/10 13:04:01;;;;;;;5.70;3.10;;;19.50;78.10;;;;;;5033593;28;20486;-77
2021/05/10 13:06:28;;;;;;;8.32;3.75;;;19.60;77.50;;;;;;5032944;28;20049;-77